Station Historical Data
Daily Summary for April 8, 2012 Units:  English    Metric   Both
« Previous Day
Next Day »
Daily Weekly Monthly Yearly Custom
  High: Low: Average:
Temperature: 71.8 °F 50.7 °F 60.2 °F
Dew Point: 56.4 °F 44.4 °F 49.1 °F
Humidity: 88% 49% 68%
Wind Speed: 11.0mph 0.0mph 2mph
Wind Gust: 11.0mph - -
Wind- - WNW
Pressure: 30.23 in 30.12 in -
Precipitation: 0.00 in    
Historical Graphs
 
 
Tabular Data for April 8, 2012
Time Temperature Dew Point Pressure Wind Wind Speed Wind Gust Humidity Rainfall Rate (Hourly) Conditions
00:00 57.3 °F 49.8 °F 30.15 in Calm     76% 0.00 in
00:01 57.2 °F 49.7 °F 30.15 in Calm     76% 0.00 in
00:06 56.8 °F 49.0 °F 30.15 in ESE 1.0 mph 1.0 mph 75% 0.00 in
00:11 57.1 °F 48.5 °F 30.15 in Calm   1.0 mph 73% 0.00 in
00:16 57.1 °F 48.2 °F 30.15 in Calm     72% 0.00 in
00:21 56.4 °F 48.6 °F 30.16 in ESE 1.0 mph 1.0 mph 75% 0.00 in
00:26 55.7 °F 48.3 °F 30.15 in Calm     76% 0.00 in
00:31 56.1 °F 47.9 °F 30.16 in Calm     74% 0.00 in
00:36 55.9 °F 48.5 °F 30.16 in WNW 2.0 mph 3.0 mph 76% 0.00 in
00:41 54.5 °F 49.5 °F 30.17 in NNW 2.0 mph 2.0 mph 83% 0.00 in
00:46 53.8 °F 49.7 °F 30.17 in NNW 2.0 mph 2.0 mph 86% 0.00 in
00:51 53.6 °F 49.5 °F 30.17 in NNW 1.0 mph 2.0 mph 86% 0.00 in
00:56 53.8 °F 49.7 °F 30.18 in Calm   1.0 mph 86% 0.00 in
01:01 53.7 °F 49.6 °F 30.18 in Calm     86% 0.00 in
01:06 53.6 °F 49.2 °F 30.18 in Calm   1.0 mph 85% 0.00 in
01:11 53.9 °F 48.5 °F 30.18 in Calm   1.0 mph 82% 0.00 in
01:16 54.7 °F 48.0 °F 30.18 in Calm     78% 0.00 in
01:22 55.0 °F 47.6 °F 30.18 in Calm     76% 0.00 in
01:27 55.4 °F 47.3 °F 30.18 in Calm   1.0 mph 74% 0.00 in
01:32 56.0 °F 47.5 °F 30.17 in Calm   1.0 mph 73% 0.00 in
01:37 56.4 °F 47.1 °F 30.18 in Calm   1.0 mph 71% 0.00 in
01:42 56.4 °F 47.1 °F 30.18 in Calm     71% 0.00 in
01:48 56.2 °F 46.9 °F 30.18 in Calm     71% 0.00 in
01:53 56.0 °F 47.1 °F 30.18 in Calm     72% 0.00 in
01:58 56.1 °F 46.8 °F 30.18 in Calm     71% 0.00 in
02:03 56.4 °F 47.1 °F 30.17 in Calm   1.0 mph 71% 0.00 in
02:08 56.4 °F 47.1 °F 30.17 in Calm     71% 0.00 in
02:13 56.1 °F 46.5 °F 30.17 in Calm     70% 0.00 in
02:18 55.5 °F 46.6 °F 30.18 in NNW 1.0 mph 1.0 mph 72% 0.00 in
02:23 55.1 °F 46.6 °F 30.17 in WNW 2.0 mph 3.0 mph 73% 0.00 in
02:28 55.2 °F 46.7 °F 30.17 in NW 2.0 mph 3.0 mph 73% 0.00 in
02:33 55.6 °F 46.4 °F 30.17 in NW 1.0 mph 1.0 mph 71% 0.00 in
02:38 55.7 °F 46.5 °F 30.17 in Calm   2.0 mph 71% 0.00 in
02:43 55.6 °F 46.4 °F 30.17 in Calm     71% 0.00 in
02:49 55.0 °F 46.2 °F 30.17 in Calm     72% 0.00 in
02:54 54.5 °F 46.0 °F 30.17 in Calm     73% 0.00 in
02:59 54.2 °F 46.1 °F 30.16 in Calm     74% 0.00 in
03:04 53.6 °F 45.9 °F 30.16 in Calm     75% 0.00 in
03:09 53.2 °F 46.5 °F 30.16 in Calm     78% 0.00 in
03:14 52.8 °F 46.5 °F 30.16 in Calm     79% 0.00 in
03:19 52.4 °F 46.4 °F 30.16 in Calm     80% 0.00 in
03:24 52.2 °F 46.5 °F 30.15 in Calm     81% 0.00 in
03:29 52.0 °F 46.0 °F 30.15 in Calm     80% 0.00 in
03:34 51.8 °F 46.2 °F 30.15 in Calm     81% 0.00 in
03:39 51.5 °F 46.2 °F 30.15 in Calm     82% 0.00 in
03:44 51.3 °F 45.7 °F 30.15 in Calm     81% 0.00 in
03:49 51.0 °F 45.4 °F 30.15 in Calm     81% 0.00 in
03:54 51.0 °F 46.3 °F 30.15 in Calm     84% 0.00 in
04:00 51.0 °F 47.3 °F 30.15 in Calm     87% 0.00 in
04:05 51.0 °F 47.3 °F 30.15 in Calm   1.0 mph 87% 0.00 in
04:10 50.9 °F 46.6 °F 30.15 in Calm     85% 0.00 in
04:15 50.7 °F 46.4 °F 30.15 in Calm     85% 0.00 in
04:20 50.9 °F 45.9 °F 30.15 in Calm     83% 0.00 in
04:25 51.3 °F 46.0 °F 30.15 in Calm     82% 0.00 in
04:30 51.7 °F 46.1 °F 30.15 in Calm     81% 0.00 in
04:35 52.1 °F 46.1 °F 30.15 in NW 1.0 mph 1.0 mph 80% 0.00 in
04:40 52.4 °F 46.1 °F 30.15 in Calm   1.0 mph 79% 0.00 in
04:45 52.5 °F 46.2 °F 30.15 in Calm     79% 0.00 in
04:50 52.6 °F 46.3 °F 30.15 in Calm   1.0 mph 79% 0.00 in
04:55 52.7 °F 46.4 °F 30.15 in Calm   1.0 mph 79% 0.00 in
05:00 52.8 °F 46.5 °F 30.15 in Calm     79% 0.00 in
05:01 52.7 °F 46.4 °F 30.15 in Calm     79% 0.00 in
05:06 52.9 °F 46.6 °F 30.15 in NW 1.0 mph 1.0 mph 79% 0.00 in
05:11 53.1 °F 46.4 °F 30.15 in NW 1.0 mph 1.0 mph 78% 0.00 in
05:16 53.2 °F 46.5 °F 30.15 in Calm   1.0 mph 78% 0.00 in
05:21 53.2 °F 46.5 °F 30.15 in Calm   1.0 mph 78% 0.00 in
05:26 53.0 °F 46.7 °F 30.16 in Calm   1.0 mph 79% 0.00 in
05:31 53.0 °F 46.7 °F 30.16 in Calm   1.0 mph 79% 0.00 in
05:36 52.9 °F 46.6 °F 30.16 in Calm     79% 0.00 in
05:41 52.7 °F 46.4 °F 30.16 in Calm     79% 0.00 in
05:46 52.6 °F 46.6 °F 30.16 in Calm     80% 0.00 in
05:51 52.6 °F 46.9 °F 30.16 in Calm     81% 0.00 in
05:56 52.5 °F 47.2 °F 30.16 in Calm     82% 0.00 in
06:01 52.5 °F 47.5 °F 30.16 in Calm     83% 0.00 in
06:06 52.4 °F 48.0 °F 30.16 in Calm     85% 0.00 in
06:11 52.4 °F 47.7 °F 30.16 in Calm     84% 0.00 in
06:16 52.5 °F 47.8 °F 30.16 in Calm     84% 0.00 in
06:22 52.5 °F 47.8 °F 30.16 in Calm     84% 0.00 in
06:27 52.5 °F 47.8 °F 30.17 in Calm     84% 0.00 in
06:32 52.6 °F 48.2 °F 30.17 in Calm     85% 0.00 in
06:38 52.6 °F 48.8 °F 30.17 in NW 1.0 mph 1.0 mph 87% 0.00 in
06:39 52.6 °F 48.8 °F 30.17 in Calm   1.0 mph 87% 0.00 in
06:44 52.3 °F 48.5 °F 30.18 in NNW 1.0 mph 1.0 mph 87% 0.00 in
06:49 52.1 °F 48.7 °F 30.19 in Calm   1.0 mph 88% 0.00 in
06:54 52.3 °F 48.5 °F 30.18 in Calm   2.0 mph 87% 0.00 in
06:59 52.6 °F 48.2 °F 30.19 in WNW 1.0 mph 2.0 mph 85% 0.00 in
07:00 52.6 °F 48.2 °F 30.19 in WNW 2.0 mph 2.0 mph 85% 0.00 in
07:05 52.9 °F 48.2 °F 30.19 in Calm   1.0 mph 84% 0.00 in
07:10 53.0 °F 48.0 °F 30.19 in Calm   2.0 mph 83% 0.00 in
07:15 53.2 °F 48.2 °F 30.19 in WNW 1.0 mph 1.0 mph 83% 0.00 in
07:20 53.3 °F 48.3 °F 30.19 in WNW 1.0 mph 2.0 mph 83% 0.00 in
07:25 53.5 °F 48.2 °F 30.19 in WNW 1.0 mph 2.0 mph 82% 0.00 in
07:31 53.6 °F 48.2 °F 30.19 in WNW 1.0 mph 2.0 mph 82% 0.00 in
07:36 53.5 °F 48.2 °F 30.20 in WNW 1.0 mph 1.0 mph 82% 0.00 in
07:42 53.6 °F 47.9 °F 30.20 in NW 1.0 mph 3.0 mph 81% 0.00 in
07:47 53.6 °F 47.9 °F 30.20 in NW 1.0 mph 2.0 mph 81% 0.00 in
07:52 53.6 °F 47.9 °F 30.19 in Calm   1.0 mph 81% 0.00 in
07:57 53.6 °F 47.9 °F 30.19 in Calm     81% 0.00 in
08:02 53.7 °F 48.0 °F 30.19 in Calm   1.0 mph 81% 0.00 in
08:08 54.0 °F 48.3 °F 30.19 in NNW 1.0 mph 1.0 mph 81% 0.00 in
08:13 54.3 °F 48.6 °F 30.19 in NNW 1.0 mph 1.0 mph 81% 0.00 in
08:18 54.7 °F 48.7 °F 30.19 in NNW 1.0 mph 1.0 mph 80% 0.00 in
08:23 54.8 °F 48.8 °F 30.19 in Calm     80% 0.00 in
08:28 55.1 °F 49.0 °F 30.19 in Calm     80% 0.00 in
08:33 55.3 °F 49.2 °F 30.20 in Calm     80% 0.00 in
08:38 55.5 °F 49.8 °F 30.20 in WNW 1.0 mph 1.0 mph 81% 0.00 in
08:43 55.7 °F 50.0 °F 30.20 in WSW 1.0 mph 2.0 mph 81% 0.00 in
08:48 55.9 °F 50.5 °F 30.20 in WSW 1.0 mph 1.0 mph 82% 0.00 in
08:53 56.0 °F 51.2 °F 30.20 in West 1.0 mph 2.0 mph 84% 0.00 in
08:59 55.8 °F 51.0 °F 30.20 in WSW 1.0 mph 2.0 mph 84% 0.00 in
09:04 55.8 °F 51.4 °F 30.21 in WSW 1.0 mph 1.0 mph 85% 0.00 in
09:09 55.7 °F 50.6 °F 30.20 in WSW 1.0 mph 1.0 mph 83% 0.00 in
09:14 55.7 °F 50.6 °F 30.20 in Calm   1.0 mph 83% 0.00 in
09:19 55.8 °F 50.4 °F 30.20 in Calm   1.0 mph 82% 0.00 in
09:24 55.9 °F 50.5 °F 30.20 in Calm   1.0 mph 82% 0.00 in
09:29 56.1 °F 50.7 °F 30.20 in Calm     82% 0.00 in
09:34 56.4 °F 50.7 °F 30.20 in Calm     81% 0.00 in
09:39 56.7 °F 51.6 °F 30.20 in WSW 1.0 mph 1.0 mph 83% 0.00 in
09:44 56.8 °F 52.0 °F 30.20 in West 1.0 mph 1.0 mph 84% 0.00 in
09:49 56.9 °F 51.1 °F 30.21 in West 1.0 mph 2.0 mph 81% 0.00 in
09:54 57.3 °F 51.5 °F 30.20 in NW 1.0 mph 2.0 mph 81% 0.00 in
10:00 57.9 °F 52.1 °F 30.21 in West 2.0 mph 2.0 mph 81% 0.00 in
10:05 58.7 °F 52.2 °F 30.20 in NW 3.0 mph 5.0 mph 79% 0.00 in
10:10 59.5 °F 52.3 °F 30.20 in NW 2.0 mph 4.0 mph 77% 0.00 in
10:15 60.1 °F 51.8 °F 30.21 in WNW 2.0 mph 7.0 mph 74% 0.00 in
10:20 60.9 °F 51.8 °F 30.21 in NNW 5.0 mph 9.0 mph 72% 0.00 in
10:25 61.6 °F 51.7 °F 30.21 in NW 3.0 mph 6.0 mph 70% 0.00 in
10:30 62.2 °F 52.3 °F 30.21 in NW 1.0 mph 6.0 mph 70% 0.00 in
10:35 62.4 °F 51.3 °F 30.21 in NNW 3.0 mph 8.0 mph 67% 0.00 in
10:40 62.7 °F 51.6 °F 30.21 in NW 5.0 mph 9.0 mph 67% 0.00 in
10:45 63.2 °F 51.7 °F 30.22 in NW 6.0 mph 8.0 mph 66% 0.00 in
10:51 63.6 °F 51.6 °F 30.22 in NW 4.0 mph 8.0 mph 65% 0.00 in
10:56 63.9 °F 51.9 °F 30.22 in WNW 1.0 mph 6.0 mph 65% 0.00 in
11:01 63.6 °F 51.6 °F 30.22 in NW 2.0 mph 7.0 mph 65% 0.00 in
11:06 63.5 °F 51.1 °F 30.22 in NW 2.0 mph 8.0 mph 64% 0.00 in
11:11 63.7 °F 52.5 °F 30.23 in NW 4.0 mph 5.0 mph 67% 0.00 in
11:16 64.2 °F 52.2 °F 30.23 in NNW 5.0 mph 5.0 mph 65% 0.00 in
11:21 64.8 °F 51.9 °F 30.22 in NNW 2.0 mph 5.0 mph 63% 0.00 in
11:26 65.5 °F 52.2 °F 30.22 in NW 2.0 mph 5.0 mph 62% 0.00 in
11:31 65.6 °F 50.4 °F 30.22 in NW 2.0 mph 5.0 mph 58% 0.00 in
11:36 65.8 °F 51.1 °F 30.22 in NNW 4.0 mph 8.0 mph 59% 0.00 in
11:41 66.1 °F 51.4 °F 30.22 in West 3.0 mph 5.0 mph 59% 0.00 in
11:46 66.3 °F 51.1 °F 30.22 in WNW 1.0 mph 9.0 mph 58% 0.00 in
11:51 66.9 °F 51.7 °F 30.21 in NW 7.0 mph 7.0 mph 58% 0.00 in
11:56 67.2 °F 52.4 °F 30.21 in WNW 3.0 mph 8.0 mph 59% 0.00 in
12:01 67.3 °F 51.6 °F 30.21 in NW 4.0 mph 6.0 mph 57% 0.00 in
12:06 67.4 °F 52.6 °F 30.21 in NNE 2.0 mph 6.0 mph 59% 0.00 in
12:11 68.2 °F 51.9 °F 30.21 in Calm   3.0 mph 56% 0.00 in
12:16 68.7 °F 52.9 °F 30.21 in North 6.0 mph 6.0 mph 57% 0.00 in
12:22 68.8 °F 51.0 °F 30.21 in NNE 4.0 mph 5.0 mph 53% 0.00 in
12:27 68.8 °F 51.0 °F 30.21 in WNW 4.0 mph 6.0 mph 53% 0.00 in
12:32 68.9 °F 50.0 °F 30.20 in NE 3.0 mph 6.0 mph 51% 0.00 in
12:37 68.7 °F 51.4 °F 30.20 in WNW 2.0 mph 5.0 mph 54% 0.00 in
12:42 68.2 °F 50.9 °F 30.20 in NW 4.0 mph 6.0 mph 54% 0.00 in
12:47 67.9 °F 51.6 °F 30.20 in West 1.0 mph 7.0 mph 56% 0.00 in
12:52 68.4 °F 50.1 °F 30.20 in ENE 2.0 mph 4.0 mph 52% 0.00 in
12:54 68.4 °F 49.6 °F 30.20 in NW 3.0 mph 5.0 mph 51% 0.00 in
13:00 68.8 °F 50.0 °F 30.20 in North 4.0 mph 5.0 mph 51% 0.00 in
13:05 69.3 °F 49.9 °F 30.20 in NW 3.0 mph 6.0 mph 50% 0.00 in
13:10 69.7 °F 51.8 °F 30.20 in North 3.0 mph 10.0 mph 53% 0.00 in
13:15 69.9 °F 53.0 °F 30.20 in NNW 4.0 mph 6.0 mph 55% 0.00 in
13:20 69.3 °F 49.9 °F 30.20 in WNW 4.0 mph 7.0 mph 50% 0.00 in
13:25 69.1 °F 50.2 °F 30.20 in NW 8.0 mph 9.0 mph 51% 0.00 in
13:30 68.6 °F 49.8 °F 30.19 in WNW 2.0 mph 6.0 mph 51% 0.00 in
13:35 69.4 °F 53.5 °F 30.19 in WNW 6.0 mph 9.0 mph 57% 0.00 in
13:40 69.4 °F 50.5 °F 30.19 in NW 3.0 mph 9.0 mph 51% 0.00 in
13:46 69.8 °F 50.9 °F 30.19 in WNW 6.0 mph 8.0 mph 51% 0.00 in
13:51 69.9 °F 51.0 °F 30.19 in WNW 7.0 mph 9.0 mph 51% 0.00 in
13:56 69.3 °F 49.3 °F 30.19 in WNW 6.0 mph 9.0 mph 49% 0.00 in
14:01 69.2 °F 51.9 °F 30.19 in NW 7.0 mph 10.0 mph 54% 0.00 in
14:06 69.4 °F 51.5 °F 30.19 in NNW 5.0 mph 6.0 mph 53% 0.00 in
14:12 69.5 °F 52.6 °F 30.18 in NNW 6.0 mph 8.0 mph 55% 0.00 in
14:17 69.2 °F 50.8 °F 30.18 in West 2.0 mph 11.0 mph 52% 0.00 in
14:22 69.0 °F 51.7 °F 30.18 in NW 5.0 mph 9.0 mph 54% 0.00 in
14:27 69.2 °F 53.8 °F 30.18 in NW 7.0 mph 8.0 mph 58% 0.00 in
14:32 69.7 °F 53.8 °F 30.18 in NW 3.0 mph 7.0 mph 57% 0.00 in
14:37 69.6 °F 50.7 °F 30.17 in WNW 3.0 mph 6.0 mph 51% 0.00 in
14:42 69.7 °F 51.8 °F 30.17 in WNW 7.0 mph 9.0 mph 53% 0.00 in
14:47 70.0 °F 52.1 °F 30.17 in NW 3.0 mph 7.0 mph 53% 0.00 in
14:52 69.8 °F 51.9 °F 30.17 in NNW 6.0 mph 6.0 mph 53% 0.00 in
14:57 70.2 °F 52.8 °F 30.17 in NNW 3.0 mph 8.0 mph 54% 0.00 in
15:03 70.2 °F 53.8 °F 30.17 in NNW 3.0 mph 9.0 mph 56% 0.00 in
15:08 70.4 °F 53.5 °F 30.17 in NW 4.0 mph 6.0 mph 55% 0.00 in
15:13 70.6 °F 54.2 °F 30.17 in NW 5.0 mph 8.0 mph 56% 0.00 in
15:18 70.1 °F 53.2 °F 30.17 in NW 5.0 mph 7.0 mph 55% 0.00 in
15:23 70.1 °F 52.2 °F 30.16 in West 3.0 mph 6.0 mph 53% 0.00 in
15:28 69.6 °F 53.2 °F 30.16 in NW 4.0 mph 8.0 mph 56% 0.00 in
15:33 69.5 °F 54.1 °F 30.16 in NNW 6.0 mph 9.0 mph 58% 0.00 in
15:38 70.0 °F 54.1 °F 30.16 in NNW 9.0 mph 9.0 mph 57% 0.00 in
15:43 70.2 °F 55.7 °F 30.16 in West 4.0 mph 10.0 mph 60% 0.00 in
15:48 70.3 °F 54.8 °F 30.16 in WNW 5.0 mph 9.0 mph 58% 0.00 in
15:53 69.7 °F 53.8 °F 30.15 in WNW 8.0 mph 9.0 mph 57% 0.00 in
15:58 69.7 °F 54.3 °F 30.15 in NW 3.0 mph 9.0 mph 58% 0.00 in
16:04 69.9 °F 54.5 °F 30.15 in NW 5.0 mph 11.0 mph 58% 0.00 in
16:09 70.5 °F 53.1 °F 30.14 in NW 4.0 mph 10.0 mph 54% 0.00 in
16:14 70.8 °F 54.3 °F 30.14 in NNW 11.0 mph 11.0 mph 56% 0.00 in
16:19 71.0 °F 53.5 °F 30.14 in NNW 5.0 mph 6.0 mph 54% 0.00 in
16:24 71.5 °F 56.4 °F 30.13 in NW 6.0 mph 10.0 mph 59% 0.00 in
16:29 71.8 °F 54.8 °F 30.14 in NNW 7.0 mph 9.0 mph 55% 0.00 in
16:34 71.2 °F 53.7 °F 30.13 in WNW 5.0 mph 9.0 mph 54% 0.00 in
16:39 71.0 °F 53.5 °F 30.13 in WNW 4.0 mph 11.0 mph 54% 0.00 in
16:44 70.7 °F 54.7 °F 30.14 in WNW 7.0 mph 8.0 mph 57% 0.00 in
16:46 70.6 °F 54.2 °F 30.14 in NW 5.0 mph 10.0 mph 56% 0.00 in
16:52 70.2 °F 53.3 °F 30.14 in West 7.0 mph 9.0 mph 55% 0.00 in
16:57 70.1 °F 52.7 °F 30.14 in WNW 6.0 mph 9.0 mph 54% 0.00 in
17:02 70.3 °F 52.9 °F 30.14 in NNW 8.0 mph 9.0 mph 54% 0.00 in
17:07 70.5 °F 54.5 °F 30.14 in NW 10.0 mph 10.0 mph 57% 0.00 in
17:12 70.3 °F 53.9 °F 30.14 in NNW 6.0 mph 10.0 mph 56% 0.00 in
17:17 70.1 °F 52.2 °F 30.13 in NNW 9.0 mph 11.0 mph 53% 0.00 in
17:22 70.0 °F 53.6 °F 30.13 in NW 5.0 mph 6.0 mph 56% 0.00 in
17:27 69.6 °F 52.2 °F 30.13 in NW 8.0 mph 9.0 mph 54% 0.00 in
17:32 69.3 °F 53.0 °F 30.13 in NW 6.0 mph 9.0 mph 56% 0.00 in
17:37 69.0 °F 52.2 °F 30.13 in NNW 6.0 mph 7.0 mph 55% 0.00 in
17:42 68.8 °F 53.0 °F 30.13 in NNW 2.0 mph 6.0 mph 57% 0.00 in
17:47 68.7 °F 51.4 °F 30.13 in NW 6.0 mph 8.0 mph 54% 0.00 in
17:52 68.5 °F 51.2 °F 30.13 in NNW 5.0 mph 9.0 mph 54% 0.00 in
17:57 68.3 °F 50.0 °F 30.13 in NNW 6.0 mph 9.0 mph 52% 0.00 in
18:03 68.1 °F 50.8 °F 30.13 in WNW 4.0 mph 6.0 mph 54% 0.00 in
18:08 68.0 °F 50.2 °F 30.13 in NNW 6.0 mph 8.0 mph 53% 0.00 in
18:13 67.8 °F 50.6 °F 30.13 in NW 3.0 mph 6.0 mph 54% 0.00 in
18:18 67.7 °F 49.5 °F 30.13 in NNW 5.0 mph 8.0 mph 52% 0.00 in
18:23 67.5 °F 49.8 °F 30.13 in NW 4.0 mph 9.0 mph 53% 0.00 in
18:28 67.4 °F 49.2 °F 30.13 in NNW 6.0 mph 8.0 mph 52% 0.00 in
18:33 67.2 °F 49.5 °F 30.13 in NNW 6.0 mph 7.0 mph 53% 0.00 in
18:38 67.1 °F 49.4 °F 30.13 in NNW 7.0 mph 9.0 mph 53% 0.00 in
18:44 66.8 °F 48.6 °F 30.13 in NNW 4.0 mph 9.0 mph 52% 0.00 in
18:49 66.6 °F 49.0 °F 30.13 in NW 5.0 mph 9.0 mph 53% 0.00 in
18:54 66.4 °F 48.8 °F 30.13 in NNW 4.0 mph 8.0 mph 53% 0.00 in
18:59 66.2 °F 49.1 °F 30.13 in NNW 4.0 mph 6.0 mph 54% 0.00 in
19:04 66.0 °F 47.9 °F 30.12 in NW 4.0 mph 10.0 mph 52% 0.00 in
19:09 65.8 °F 48.2 °F 30.12 in NNE 3.0 mph 6.0 mph 53% 0.00 in
19:14 65.5 °F 47.9 °F 30.12 in NNW 4.0 mph 5.0 mph 53% 0.00 in
19:19 65.3 °F 46.7 °F 30.12 in NNW 2.0 mph 6.0 mph 51% 0.00 in
19:24 65.0 °F 46.5 °F 30.12 in NNW 3.0 mph 7.0 mph 51% 0.00 in
19:29 64.8 °F 46.8 °F 30.12 in NNW 3.0 mph 5.0 mph 52% 0.00 in
19:34 64.6 °F 46.6 °F 30.12 in NNW 2.0 mph 6.0 mph 52% 0.00 in
19:40 64.3 °F 46.8 °F 30.12 in NW 1.0 mph 3.0 mph 53% 0.00 in
19:45 63.9 °F 46.5 °F 30.12 in NW 1.0 mph 3.0 mph 53% 0.00 in
19:50 63.7 °F 46.8 °F 30.12 in NW 1.0 mph 2.0 mph 54% 0.00 in
19:55 63.4 °F 47.0 °F 30.12 in NW 1.0 mph 2.0 mph 55% 0.00 in
20:00 63.3 °F 46.9 °F 30.12 in NW 1.0 mph 2.0 mph 55% 0.00 in
20:05 63.1 °F 46.7 °F 30.12 in NW 3.0 mph 3.0 mph 55% 0.00 in
20:10 62.8 °F 46.9 °F 30.12 in NW 1.0 mph 2.0 mph 56% 0.00 in
20:16 62.4 °F 46.5 °F 30.12 in NW 1.0 mph 2.0 mph 56% 0.00 in
20:21 62.3 °F 46.4 °F 30.12 in NW 1.0 mph 1.0 mph 56% 0.00 in
20:26 61.9 °F 46.5 °F 30.12 in Calm   1.0 mph 57% 0.00 in
20:31 61.6 °F 46.2 °F 30.12 in Calm   1.0 mph 57% 0.00 in
20:36 61.3 °F 46.4 °F 30.12 in Calm   1.0 mph 58% 0.00 in
20:41 60.8 °F 46.0 °F 30.12 in Calm     58% 0.00 in
20:46 60.4 °F 45.6 °F 30.12 in Calm     58% 0.00 in
20:51 60.0 °F 46.1 °F 30.12 in Calm     60% 0.00 in
20:56 59.7 °F 45.4 °F 30.12 in NNW 2.0 mph 2.0 mph 59% 0.00 in
21:02 60.0 °F 45.7 °F 30.13 in North 1.0 mph 2.0 mph 59% 0.00 in
21:06 59.9 °F 45.5 °F 30.13 in Calm   1.0 mph 59% 0.00 in
21:12 59.7 °F 45.8 °F 30.13 in Calm   1.0 mph 60% 0.00 in
21:17 59.4 °F 45.5 °F 30.13 in Calm   1.0 mph 60% 0.00 in
21:22 59.1 °F 46.1 °F 30.13 in NNW 1.0 mph 1.0 mph 62% 0.00 in
21:27 58.5 °F 46.0 °F 30.13 in Calm   1.0 mph 63% 0.00 in
21:32 57.9 °F 45.8 °F 30.13 in Calm     64% 0.00 in
21:37 57.5 °F 45.8 °F 30.14 in Calm     65% 0.00 in
21:42 57.3 °F 46.0 °F 30.14 in Calm     66% 0.00 in
21:47 57.3 °F 46.0 °F 30.13 in NNE 1.0 mph 1.0 mph 66% 0.00 in
21:52 57.4 °F 46.2 °F 30.13 in Calm     66% 0.00 in
21:57 56.8 °F 46.4 °F 30.14 in Calm     68% 0.00 in
22:02 56.1 °F 46.1 °F 30.14 in Calm     69% 0.00 in
22:07 55.6 °F 45.6 °F 30.14 in NNE 1.0 mph 1.0 mph 69% 0.00 in
22:12 55.9 °F 46.3 °F 30.14 in NNE 1.0 mph 1.0 mph 70% 0.00 in
22:17 56.0 °F 46.4 °F 30.14 in Calm     70% 0.00 in
22:22 55.5 °F 46.3 °F 30.14 in Calm     71% 0.00 in
22:27 55.1 °F 45.9 °F 30.15 in Calm     71% 0.00 in
22:33 54.8 °F 46.0 °F 30.14 in Calm     72% 0.00 in
22:38 54.2 °F 46.1 °F 30.14 in Calm     74% 0.00 in
22:43 54.1 °F 46.0 °F 30.14 in Calm     74% 0.00 in
22:48 54.1 °F 46.7 °F 30.15 in Calm     76% 0.00 in
22:53 53.8 °F 46.1 °F 30.15 in Calm     75% 0.00 in
22:58 53.9 °F 46.2 °F 30.15 in Calm     75% 0.00 in
23:03 53.9 °F 45.8 °F 30.15 in Calm     74% 0.00 in
23:08 53.9 °F 45.8 °F 30.15 in Calm     74% 0.00 in
23:13 53.9 °F 45.5 °F 30.15 in Calm     73% 0.00 in
23:18 54.1 °F 45.7 °F 30.15 in Calm   1.0 mph 73% 0.00 in
23:23 54.2 °F 45.8 °F 30.15 in North 1.0 mph 2.0 mph 73% 0.00 in
23:28 54.2 °F 45.8 °F 30.15 in NNW 2.0 mph 2.0 mph 73% 0.00 in
23:34 54.3 °F 45.5 °F 30.15 in NNE 2.0 mph 3.0 mph 72% 0.00 in
23:39 54.4 °F 45.2 °F 30.15 in NNE 2.0 mph 3.0 mph 71% 0.00 in
23:44 54.3 °F 45.1 °F 30.15 in NNW 1.0 mph 2.0 mph 71% 0.00 in
23:49 54.4 °F 44.8 °F 30.15 in NNW 1.0 mph 2.0 mph 70% 0.00 in
23:54 54.4 °F 44.8 °F 30.15 in NNW 1.0 mph 2.0 mph 70% 0.00 in
23:59 54.3 °F 44.4 °F 30.15 in NNW 3.0 mph 3.0 mph 69% 0.00 in
Compliments of Weather Underground